Flugplatz Walldürn (EDEW)

Hier findest Du alle Informationen zum Flugplatz Walldürn (EDEW).

Informationen für Piloten zum Flugplatz Walldürn

Hier findest Du alle relevanten Informationen, die Du als Pilot benötigst, um Walldürn anzufliegen.

Flugplatz: Walldürn ICAO-Code: EDEW
Frequenz Turm: 122,750 Mhz GAFOR Gebiet: 54
Frequenz Ground: 122,750 Mhz Mogas: ja
Platzrunde: SE 2100 ft Landegebühr: -
Platzhöhe: - Sunrise: 03:18 Uhr UTC
Pisten: 06/24 - 730 m x 20 m, ASPH Sunset: 19:34 Uhr UTC

Mitglieder, die in Walldürn fliegen

Flugwetter am Flugplatz Walldürn

Die METAR Information stammen aus EDFM (65.20 km entfernt).

METAR Code:
2022/05/31 13:50
EDFM 311350Z 27005KT 200V320 CAVOK 23/03 Q1011

Temperatur: 20,8 °C Niederschlag: - Wind: 6,7 kt (max.: 7,9 kt in Böen)
Temperatur (min.): 18,8 °C Luftdruck: 1023 hPa Windrichtung: 118 °
Temperatur (max.): 21,5 °C Luftfeuchtigkeit: 44 % Bewölkung: -

Flugschulen am Flugplatz Walldürn

Am Flugplatz Walldürn gibt es eine Flugschule.

Benachbarte Flugplätze und Flugschulen

Es gibt 16 weitere Flugplätze in einem Umkreis von 50 km um den Flugplatz Walldürn.

Jetzt anmelden

Passwort vergessen

Umfrage Archiv

Sendet Ihr ADS-B und/oder FLARM?

Ja
83.1 %
Nein
16.9 %
Stimmen: 177 | Diskussion
Anzeige: Roland Aircraft
Statistik Alle Mitglieder

Aktuell sind 59 Besucher online, davon 1 Mitglied und 58 Gäste.


Mitglieder online:
Bruchi 

Anzeige: ULPower Aero Engines Anzeige: Pocket FMS